Ledegem, Belgium
Current Conditions -  °F | °C
As of 7:30 AM on Sunday 28 Dec 2014 (Local Time) from LFQQ Reporting Station
Scattered Clouds Scattered Clouds  
Wind Chill: 13°   Ceiling: Unl
Heat Index: 27°   Visibility: 6mi
Dew Point: 19°   Wind: 18mph
Humidity: 74%   Direction: 40°NE
Pressure: 30.09"   Gusts: NA
Location:  50.86°N, 3.12°E
Report Text: LFQQ 280630Z 04016KT 9999 SCT021 M03/M07 Q1019 R08/190095NOSIG
Loading
Personal Weather Stations






























Interactive Weather Map New forecast layout! Learn more

10-Day Weather Forecast

Advertisements
Track Severe Weather on mobile